createdAt,value
2018-04-06T00:00:07.523Z,14.40
2018-04-06T00:02:35.250Z,13.30
2018-04-06T00:05:02.968Z,13.90
2018-04-06T00:07:30.712Z,12.37
2018-04-06T00:09:58.420Z,13.60
2018-04-06T00:12:26.131Z,12.67
2018-04-06T00:14:53.837Z,13.57
2018-04-06T00:17:22.317Z,11.70
2018-04-06T00:19:50.028Z,12.30
2018-04-06T00:22:17.737Z,11.97
2018-04-06T00:24:45.462Z,12.40
2018-04-06T00:27:13.163Z,12.87
2018-04-06T00:29:40.884Z,11.93
2018-04-06T00:32:08.602Z,11.13
2018-04-06T00:34:36.655Z,10.60
2018-04-06T00:37:04.369Z,10.70
2018-04-06T00:39:32.089Z,11.80
2018-04-06T00:41:59.801Z,11.43
2018-04-06T00:44:27.517Z,11.30
2018-04-06T00:46:55.242Z,10.67
2018-04-06T00:49:22.948Z,10.87
2018-04-06T00:51:50.657Z,10.60
2018-04-06T00:54:18.368Z,11.80
2018-04-06T00:56:46.098Z,11.07
2018-04-06T00:59:13.813Z,10.20
2018-04-06T01:01:41.531Z,9.97
2018-04-06T01:04:09.228Z,9.93
2018-04-06T01:06:36.948Z,10.43
2018-04-06T01:09:04.668Z,9.70
2018-04-06T01:11:32.367Z,10.13
2018-04-06T01:14:00.081Z,10.00
2018-04-06T01:16:27.797Z,10.37
2018-04-06T01:18:55.496Z,11.20
2018-04-06T01:21:23.196Z,10.57
2018-04-06T01:23:50.908Z,9.70
2018-04-06T01:26:18.714Z,11.60
2018-04-06T01:28:46.415Z,9.83
2018-04-06T01:31:14.131Z,10.90
2018-04-06T01:33:41.849Z,10.93
2018-04-06T01:36:09.595Z,10.00
2018-04-06T01:38:37.316Z,9.83
2018-04-06T01:41:05.034Z,8.80
2018-04-06T01:43:32.741Z,8.27
2018-04-06T01:46:00.501Z,8.60
2018-04-06T01:48:28.197Z,10.00
2018-04-06T01:50:55.917Z,7.83
2018-04-06T01:53:24.404Z,8.17
2018-04-06T01:55:52.113Z,7.10
2018-04-06T01:58:19.817Z,7.60
2018-04-06T02:00:47.529Z,8.20
2018-04-06T02:03:15.244Z,6.80
2018-04-06T02:05:42.943Z,7.13
2018-04-06T02:08:10.665Z,6.93
2018-04-06T02:10:38.381Z,7.07
2018-04-06T02:13:06.090Z,8.00
2018-04-06T02:15:33.810Z,7.70
2018-04-06T02:18:02.738Z,7.20
2018-04-06T02:20:30.457Z,6.77
2018-04-06T02:22:58.177Z,6.30
2018-04-06T02:25:25.885Z,6.50
2018-04-06T02:27:53.600Z,7.33
2018-04-06T02:30:21.311Z,6.90
2018-04-06T02:32:49.784Z,7.30
2018-04-06T02:35:17.507Z,7.50
2018-04-06T02:37:45.290Z,7.70
2018-04-06T02:40:12.997Z,7.50
2018-04-06T02:42:41.455Z,6.70
2018-04-06T02:45:09.179Z,7.50
2018-04-06T02:47:37.351Z,6.60
2018-04-06T02:50:05.070Z,7.00
2018-04-06T02:52:32.781Z,7.27
2018-04-06T02:55:00.507Z,7.10
2018-04-06T02:57:28.972Z,6.67
2018-04-06T02:59:56.688Z,6.23
2018-04-06T03:02:24.403Z,6.47
2018-04-06T03:04:52.126Z,6.33
2018-04-06T03:07:19.851Z,6.53
2018-04-06T03:09:47.570Z,7.47
2018-04-06T03:12:15.267Z,6.80
2018-04-06T03:14:42.992Z,6.90
2018-04-06T03:17:10.693Z,6.93
2018-04-06T03:19:38.418Z,7.13
2018-04-06T03:22:06.358Z,7.00
2018-04-06T03:24:34.050Z,7.37
2018-04-06T03:27:01.803Z,7.47
2018-04-06T03:29:29.511Z,7.20
2018-04-06T03:31:57.226Z,6.90
2018-04-06T03:34:24.938Z,7.03
2018-04-06T03:36:52.641Z,7.20
2018-04-06T03:39:21.547Z,7.10
2018-04-06T03:41:50.008Z,6.97
2018-04-06T03:44:17.705Z,5.70
2018-04-06T03:46:45.416Z,8.40
2018-04-06T03:49:13.125Z,7.20
2018-04-06T03:51:40.832Z,6.67
2018-04-06T03:54:08.526Z,6.70
2018-04-06T03:56:36.238Z,6.20
2018-04-06T03:59:03.952Z,6.70
2018-04-06T04:01:31.666Z,6.30
2018-04-06T04:03:59.388Z,5.90
2018-04-06T04:06:27.117Z,6.90
2018-04-06T04:08:54.835Z,6.70
2018-04-06T04:11:22.575Z,6.30
2018-04-06T04:13:50.276Z,6.50
2018-04-06T04:16:18.758Z,7.10
2018-04-06T04:18:46.454Z,7.50
2018-04-06T04:21:14.169Z,7.67
2018-04-06T04:23:41.872Z,6.83
2018-04-06T04:26:09.574Z,6.63
2018-04-06T04:28:38.046Z,6.40
2018-04-06T04:31:05.765Z,6.97
2018-04-06T04:33:33.460Z,7.00
2018-04-06T04:36:01.966Z,6.57
2018-04-06T04:38:30.091Z,8.27
2018-04-06T04:40:59.272Z,6.97
2018-04-06T04:43:27.165Z,7.80
2018-04-06T04:48:44.496Z,7.50
2018-04-06T04:51:12.968Z,6.30
2018-04-06T04:53:40.720Z,6.47
2018-04-06T04:56:20.664Z,8.40
2018-04-06T04:58:49.211Z,7.93
2018-04-06T05:01:16.925Z,10.37
2018-04-06T05:03:44.654Z,8.10
2018-04-06T05:06:12.405Z,8.60
2018-04-06T05:08:40.139Z,9.20
2018-04-06T05:11:07.839Z,10.80
2018-04-06T05:13:35.565Z,10.60
2018-04-06T05:16:03.298Z,12.57
2018-04-06T05:18:31.043Z,12.60
2018-04-06T05:20:58.765Z,13.57
2018-04-06T05:23:26.476Z,14.93
2018-04-06T05:25:54.186Z,14.10
2018-04-06T05:28:21.902Z,15.20
2018-04-06T05:30:51.340Z,14.90
2018-04-06T05:33:19.075Z,15.20
2018-04-06T05:35:46.783Z,15.10
2018-04-06T05:38:14.506Z,15.77
2018-04-06T05:40:42.395Z,14.97
2018-04-06T05:43:11.490Z,17.03
2018-04-06T05:45:39.334Z,16.03
2018-04-06T05:48:07.234Z,15.80
2018-04-06T05:50:34.944Z,14.83
2018-04-06T05:53:04.405Z,15.10
2018-04-06T05:55:32.202Z,15.70
2018-04-06T05:57:59.955Z,16.50
2018-04-06T06:00:27.691Z,15.10
2018-04-06T06:02:55.402Z,16.17
2018-04-06T06:05:23.117Z,16.47
2018-04-06T06:07:50.824Z,15.10
2018-04-06T06:10:18.587Z,14.33
2018-04-06T06:13:00.900Z,15.33
2018-04-06T06:15:28.647Z,14.87
2018-04-06T06:17:56.365Z,14.70
2018-04-06T06:20:24.844Z,14.00
2018-04-06T06:22:52.605Z,12.83
2018-04-06T06:25:20.335Z,14.10
2018-04-06T06:27:48.092Z,13.90
2018-04-06T06:30:17.694Z,13.10
2018-04-06T06:32:45.472Z,13.50
2018-04-06T06:35:13.212Z,12.70
2018-04-06T06:37:40.948Z,14.03
2018-04-06T06:40:09.637Z,14.13
2018-04-06T06:42:38.163Z,13.47
2018-04-06T06:45:06.352Z,14.07
2018-04-06T06:47:34.088Z,13.70
2018-04-06T06:50:01.807Z,13.07
2018-04-06T06:52:29.562Z,14.07
2018-04-06T06:54:57.940Z,14.70
2018-04-06T06:57:25.647Z,14.30
2018-04-06T06:59:53.361Z,14.20
2018-04-06T07:02:21.066Z,14.77
2018-04-06T07:04:49.621Z,15.63
2018-04-06T07:07:17.350Z,14.73
2018-04-06T07:09:45.209Z,15.87
2018-04-06T07:12:12.934Z,15.60
2018-04-06T07:14:41.462Z,14.70
2018-04-06T07:17:09.340Z,15.47
2018-04-06T07:19:37.053Z,16.87
2018-04-06T07:22:04.822Z,15.70
2018-04-06T07:24:32.592Z,15.50
2018-04-06T07:27:00.427Z,15.73
2018-04-06T07:29:28.327Z,17.33
2018-04-06T07:31:56.060Z,16.20
2018-04-06T07:34:23.824Z,15.73
2018-04-06T07:36:51.549Z,16.47
2018-04-06T07:39:19.523Z,17.70
2018-04-06T07:41:48.821Z,17.63
2018-04-06T07:44:17.466Z,16.90
2018-04-06T07:46:46.224Z,15.90
2018-04-06T07:49:15.039Z,18.20
2018-04-06T07:51:42.908Z,16.63
2018-04-06T07:54:10.679Z,16.20
2018-04-06T07:56:39.579Z,16.10
2018-04-06T07:59:07.412Z,15.30
2018-04-06T08:01:36.523Z,15.67
2018-04-06T08:04:04.274Z,15.07
2018-04-06T08:06:32.133Z,14.03
2018-04-06T08:08:59.858Z,14.57
2018-04-06T08:11:27.831Z,13.73
2018-04-06T08:13:55.573Z,13.57
2018-04-06T08:16:23.313Z,13.50
2018-04-06T08:18:51.104Z,14.33
2018-04-06T08:21:18.841Z,15.53
2018-04-06T08:23:46.573Z,14.60
2018-04-06T08:26:14.328Z,16.27
2018-04-06T08:28:42.058Z,16.33
2018-04-06T08:31:09.772Z,15.73
2018-04-06T08:33:37.627Z,16.50
2018-04-06T08:36:05.401Z,16.77
2018-04-06T08:38:33.131Z,17.80
2018-04-06T08:41:01.139Z,20.70
2018-04-06T08:43:29.626Z,22.57
2018-04-06T08:45:57.369Z,20.40
2018-04-06T08:48:25.900Z,22.80
2018-04-06T08:50:57.898Z,22.90
2018-04-06T08:53:26.466Z,25.67
2018-04-06T08:55:55.127Z,22.47
2018-04-06T08:58:22.933Z,24.53
2018-04-06T09:00:50.838Z,24.90
2018-04-06T09:03:18.548Z,25.27
2018-04-06T09:05:46.265Z,27.00
2018-04-06T09:08:13.988Z,24.50
2018-04-06T09:10:41.713Z,26.03
2018-04-06T09:13:09.562Z,27.37
2018-04-06T09:15:37.283Z,25.37
2018-04-06T09:18:04.997Z,26.20
2018-04-06T09:20:32.768Z,26.40
2018-04-06T09:23:00.493Z,27.47
2018-04-06T09:25:28.730Z,28.57
2018-04-06T09:27:56.459Z,28.43
2018-04-06T09:30:24.212Z,29.67
2018-04-06T09:32:51.964Z,30.07
2018-04-06T09:35:19.721Z,30.60
2018-04-06T09:37:47.436Z,33.10
2018-04-06T09:40:15.149Z,35.47
2018-04-06T09:42:42.885Z,36.80
2018-04-06T09:45:10.598Z,37.53
2018-04-06T09:47:38.628Z,35.17
2018-04-06T09:50:07.532Z,38.20
2018-04-06T09:52:35.236Z,39.27
2018-04-06T09:55:02.965Z,38.97
2018-04-06T09:57:31.441Z,36.80
2018-04-06T09:59:59.163Z,32.90
2018-04-06T10:02:26.913Z,36.73
2018-04-06T10:04:56.540Z,41.70
2018-04-06T10:07:24.250Z,40.87
2018-04-06T10:09:51.977Z,41.33
2018-04-06T10:12:19.684Z,41.90
2018-04-06T10:14:47.394Z,40.87
2018-04-06T10:17:15.105Z,49.20
2018-04-06T10:19:42.822Z,44.93
2018-04-06T10:22:10.537Z,46.00
2018-04-06T10:24:38.270Z,44.37
2018-04-06T10:27:05.999Z,44.30
2018-04-06T10:29:33.724Z,46.30
2018-04-06T10:32:01.432Z,47.93
2018-04-06T10:34:29.141Z,48.13
2018-04-06T10:37:13.273Z,46.20
2018-04-06T10:39:40.966Z,43.40
2018-04-06T10:42:08.678Z,44.63
2018-04-06T10:44:36.397Z,44.80
2018-04-06T10:47:04.113Z,46.07
2018-04-06T10:49:31.817Z,43.83
2018-04-06T10:52:00.355Z,44.00
2018-04-06T10:54:28.830Z,45.20
2018-04-06T10:56:56.537Z,44.23
2018-04-06T10:59:24.244Z,40.07
2018-04-06T11:01:51.965Z,43.80
2018-04-06T11:04:19.675Z,40.97
2018-04-06T11:06:47.383Z,41.53
2018-04-06T11:09:15.105Z,40.93
2018-04-06T11:11:42.827Z,38.77
2018-04-06T11:14:10.694Z,40.27
2018-04-06T11:16:38.410Z,35.00
2018-04-06T11:19:06.124Z,38.97
2018-04-06T11:21:33.835Z,37.13
2018-04-06T11:24:01.563Z,35.60
2018-04-06T11:26:29.281Z,36.90
2018-04-06T11:28:56.997Z,40.03
2018-04-06T11:31:30.206Z,38.87
2018-04-06T11:33:57.915Z,39.27
2018-04-06T11:36:25.634Z,34.37
2018-04-06T11:38:53.344Z,32.37
2018-04-06T11:41:21.813Z,34.20
2018-04-06T11:43:50.297Z,33.37
2018-04-06T11:46:18.025Z,33.37
2018-04-06T11:48:45.745Z,35.80
2018-04-06T11:51:14.226Z,31.20
2018-04-06T11:53:42.593Z,29.17
2018-04-06T11:56:11.085Z,26.47
2018-04-06T11:58:38.797Z,30.07
2018-04-06T12:01:06.854Z,31.77
2018-04-06T12:03:34.575Z,29.10
2018-04-06T12:06:02.308Z,29.53
2018-04-06T12:08:30.029Z,29.57
2018-04-06T12:10:58.492Z,28.70
2018-04-06T12:13:26.205Z,30.00
2018-04-06T12:15:53.917Z,29.90
2018-04-06T12:18:21.798Z,29.43
2018-04-06T12:20:49.530Z,29.13
2018-04-06T12:23:17.242Z,28.53
2018-04-06T12:25:45.723Z,30.10
2018-04-06T12:28:13.489Z,27.87
2018-04-06T12:30:41.226Z,27.87
2018-04-06T12:33:09.735Z,30.17
2018-04-06T12:35:38.217Z,28.17
2018-04-06T12:38:06.718Z,28.50
2018-04-06T12:40:34.437Z,28.13
2018-04-06T12:43:02.172Z,27.80
2018-04-06T12:45:29.870Z,29.40
2018-04-06T12:47:57.650Z,30.93
2018-04-06T12:50:26.612Z,27.70
2018-04-06T12:52:54.340Z,28.70
2018-04-06T12:55:23.469Z,32.10
2018-04-06T12:57:51.302Z,32.90
2018-04-06T13:00:19.030Z,29.93
2018-04-06T13:02:46.752Z,30.97
2018-04-06T13:05:14.456Z,32.87
2018-04-06T13:07:42.180Z,29.17
2018-04-06T13:10:10.688Z,31.67
2018-04-06T13:12:38.443Z,32.23
2018-04-06T13:15:06.194Z,30.13
2018-04-06T13:17:33.980Z,30.03
2018-04-06T13:20:01.686Z,29.40
2018-04-06T13:22:29.393Z,32.07
2018-04-06T13:24:57.119Z,33.07
2018-04-06T13:27:24.854Z,30.33
2018-04-06T13:30:00.921Z,28.73
2018-04-06T13:32:28.664Z,27.10
2018-04-06T13:34:56.390Z,29.33
2018-04-06T13:37:24.873Z,28.40
2018-04-06T13:39:53.386Z,29.03
2018-04-06T13:42:21.169Z,26.80
2018-04-06T13:44:51.459Z,28.70
2018-04-06T13:47:19.961Z,30.47
2018-04-06T13:49:47.690Z,26.43
2018-04-06T13:52:15.565Z,27.30
2018-04-06T13:54:44.866Z,26.80
2018-04-06T13:57:14.339Z,27.60
2018-04-06T13:59:44.481Z,26.33
2018-04-06T14:02:12.199Z,26.90
2018-04-06T14:04:39.919Z,25.57
2018-04-06T14:07:07.632Z,24.60
2018-04-06T14:09:35.409Z,28.70
2018-04-06T14:12:03.148Z,27.07
2018-04-06T14:14:31.640Z,27.70
2018-04-06T14:16:59.367Z,26.80
2018-04-06T14:19:27.094Z,28.30
2018-04-06T14:21:54.809Z,29.07
2018-04-06T14:24:22.527Z,26.53
2018-04-06T14:26:50.256Z,30.13
2018-04-06T14:29:17.982Z,28.50
2018-04-06T14:31:46.498Z,27.70
2018-04-06T14:34:14.220Z,27.40
2018-04-06T14:36:41.971Z,27.57
2018-04-06T14:39:09.931Z,27.20
2018-04-06T14:41:38.756Z,27.73
2018-04-06T14:44:06.782Z,26.47
2018-04-06T14:46:34.582Z,27.10
2018-04-06T14:49:02.333Z,25.90
2018-04-06T14:51:30.109Z,27.07
2018-04-06T14:53:57.858Z,26.10
2018-04-06T14:56:26.267Z,26.17
2018-04-06T14:58:54.326Z,24.03
2018-04-06T15:01:22.055Z,25.70
2018-04-06T15:03:49.850Z,23.00
2018-04-06T15:06:17.640Z,25.20
2018-04-06T15:08:45.388Z,23.90
2018-04-06T15:11:13.118Z,24.37
2018-04-06T15:13:42.257Z,26.33
2018-04-06T15:16:10.032Z,22.70
2018-04-06T15:18:37.831Z,23.47
2018-04-06T15:21:05.592Z,23.60
2018-04-06T15:23:33.326Z,22.23
2018-04-06T15:26:01.051Z,22.83
2018-04-06T15:28:28.822Z,20.10
2018-04-06T15:30:56.685Z,19.80
2018-04-06T15:33:25.186Z,18.97
2018-04-06T15:35:53.160Z,20.30
2018-04-06T15:38:21.032Z,19.17
2018-04-06T15:40:48.789Z,17.20
2018-04-06T15:43:17.251Z,18.60
2018-04-06T15:45:45.077Z,16.97
2018-04-06T15:48:13.230Z,16.33
2018-04-06T15:50:42.677Z,16.17
2018-04-06T15:53:11.642Z,15.90
2018-04-06T15:55:42.856Z,16.20
2018-04-06T15:58:12.273Z,18.20
2018-04-06T16:00:43.433Z,15.37
2018-04-06T16:03:13.886Z,14.30
2018-04-06T16:05:43.447Z,15.13
2018-04-06T16:08:15.760Z,14.33
2018-04-06T16:10:55.468Z,14.33
2018-04-06T16:13:24.148Z,14.50
2018-04-06T16:16:00.288Z,12.73
2018-04-06T16:18:28.055Z,13.30
2018-04-06T16:20:57.564Z,13.50
2018-04-06T16:26:05.505Z,10.50
2018-04-06T16:28:34.142Z,11.07
2018-04-06T16:31:01.873Z,12.23
2018-04-06T16:33:31.135Z,12.60
2018-04-06T16:35:59.515Z,11.70
2018-04-06T16:38:27.345Z,12.10
2018-04-06T16:40:56.094Z,12.87
2018-04-06T16:43:28.633Z,11.13
2018-04-06T16:45:56.870Z,10.93
2018-04-06T16:48:30.948Z,10.87
2018-04-06T16:51:02.582Z,10.30
2018-04-06T16:53:31.856Z,10.73
2018-04-06T16:55:59.839Z,9.07
2018-04-06T16:58:27.666Z,9.40
2018-04-06T17:00:56.873Z,8.47
2018-04-06T17:03:24.885Z,8.60
2018-04-06T17:05:52.613Z,8.63
2018-04-06T17:08:20.544Z,8.13
2018-04-06T17:10:48.599Z,8.73
2018-04-06T17:13:16.344Z,7.67
2018-04-06T17:15:45.905Z,7.70
2018-04-06T17:18:19.505Z,7.40
2018-04-06T17:20:49.002Z,7.10
2018-04-06T17:23:23.945Z,7.17
2018-04-06T17:25:52.926Z,7.47
2018-04-06T17:28:31.274Z,7.43
2018-04-06T17:30:59.843Z,6.40
2018-04-06T17:33:28.551Z,6.03
2018-04-06T17:38:29.586Z,6.13
2018-04-06T17:40:57.376Z,6.00
2018-04-06T17:43:25.951Z,5.20
2018-04-06T17:45:53.812Z,4.77
2018-04-06T17:48:21.537Z,5.23
2018-04-06T17:50:49.364Z,5.70
2018-04-06T17:53:17.905Z,4.97
2018-04-06T17:55:50.591Z,4.70
2018-04-06T17:58:18.455Z,4.93
2018-04-06T18:00:46.916Z,4.40
2018-04-06T18:03:15.843Z,3.83
2018-04-06T18:05:43.739Z,4.03
2018-04-06T18:08:14.715Z,4.90
2018-04-06T18:10:45.188Z,4.67
2018-04-06T18:13:14.056Z,4.20
2018-04-06T18:15:43.562Z,3.90
2018-04-06T18:18:11.838Z,4.60
2018-04-06T18:20:39.768Z,4.30
2018-04-06T18:23:09.159Z,3.70
2018-04-06T18:25:36.963Z,4.63
2018-04-06T18:28:05.595Z,3.90
2018-04-06T18:30:37.714Z,3.77
2018-04-06T18:33:06.295Z,3.37
2018-04-06T18:35:37.611Z,3.30
2018-04-06T18:38:09.925Z,3.00
2018-04-06T18:41:06.571Z,3.23
2018-04-06T18:43:35.078Z,2.97
2018-04-06T18:46:03.120Z,3.40
2018-04-06T18:48:30.935Z,2.93
2018-04-06T18:51:09.481Z,3.97
2018-04-06T18:53:37.287Z,3.57
2018-04-06T18:56:16.190Z,3.20
2018-04-06T18:58:46.259Z,3.30
2018-04-06T19:01:15.109Z,2.60
2018-04-06T19:03:43.915Z,3.00
2018-04-06T19:06:12.468Z,3.03
2018-04-06T19:08:41.141Z,3.53
2018-04-06T19:11:08.988Z,3.20
2018-04-06T19:13:37.404Z,3.37
2018-04-06T19:16:08.063Z,3.67
2018-04-06T19:18:49.117Z,5.40
2018-04-06T19:21:22.727Z,3.60
2018-04-06T19:23:50.588Z,2.90
2018-04-06T19:26:18.620Z,3.70
2018-04-06T19:28:46.394Z,2.70
2018-04-06T19:31:41.162Z,3.50
2018-04-06T19:37:04.157Z,3.37
2018-04-06T19:39:32.632Z,3.83
2018-04-06T19:42:00.543Z,3.30
2018-04-06T19:44:28.375Z,3.90
2018-04-06T19:46:57.072Z,3.53
2018-04-06T19:49:24.912Z,3.10
2018-04-06T19:51:52.699Z,3.43
2018-04-06T19:54:48.044Z,4.17
2018-04-06T19:57:17.628Z,4.10
2018-04-06T19:59:49.790Z,3.97
2018-04-06T20:02:17.653Z,4.40
2018-04-06T20:04:48.673Z,5.03
2018-04-06T20:07:26.364Z,4.97
2018-04-06T20:09:56.221Z,4.00
2018-04-06T20:12:31.468Z,4.63
2018-04-06T20:15:06.087Z,4.33
2018-04-06T20:17:33.894Z,4.90
2018-04-06T20:20:02.045Z,4.90
2018-04-06T20:22:30.948Z,5.53
2018-04-06T20:25:02.017Z,4.77
2018-04-06T20:27:30.605Z,4.90
2018-04-06T20:29:58.468Z,5.60
2018-04-06T20:32:27.244Z,4.83
2018-04-06T20:34:55.855Z,5.10
2018-04-06T20:37:23.697Z,5.20
2018-04-06T20:39:52.181Z,5.17
2018-04-06T20:42:21.234Z,4.90
2018-04-06T20:44:51.921Z,5.20
2018-04-06T20:50:26.192Z,4.93
2018-04-06T20:52:55.512Z,9.07
2018-04-06T20:55:24.061Z,6.83
2018-04-06T20:57:59.614Z,5.40
2018-04-06T21:14:14.201Z,5.70
2018-04-06T21:16:42.744Z,6.20
2018-04-06T21:19:10.468Z,6.03
2018-04-06T21:21:38.731Z,5.83
2018-04-06T21:24:07.604Z,6.60
2018-04-06T21:26:35.356Z,7.10
2018-04-06T21:29:03.628Z,7.40
2018-04-06T21:31:31.472Z,6.87
2018-04-06T21:33:59.252Z,6.60
2018-04-06T21:36:28.402Z,7.50
2018-04-06T21:38:56.176Z,5.70
2018-04-06T21:41:24.937Z,6.90
2018-04-06T21:43:52.698Z,7.17
2018-04-06T21:46:20.450Z,7.13
2018-04-06T21:48:48.193Z,7.50
2018-04-06T21:51:15.913Z,6.97
2018-04-06T21:53:44.154Z,7.70
2018-04-06T21:56:11.893Z,6.77
2018-04-06T21:58:39.611Z,7.70
2018-04-06T22:01:07.357Z,7.00
2018-04-06T22:03:35.104Z,7.07
2018-04-06T22:06:02.846Z,6.80
2018-04-06T22:08:30.578Z,7.00
2018-04-06T22:10:58.333Z,6.20
2018-04-06T22:13:26.085Z,7.10
2018-04-06T22:15:53.949Z,6.70
2018-04-06T22:18:23.229Z,6.60
2018-04-06T22:20:52.098Z,7.03
2018-04-06T22:23:21.669Z,6.30
2018-04-06T22:25:49.394Z,7.83
2018-04-06T22:28:17.115Z,6.70
2018-04-06T22:30:44.864Z,6.33
2018-04-06T22:33:12.605Z,6.70
2018-04-06T22:35:42.414Z,7.77
2018-04-06T22:38:10.161Z,7.40
2018-04-06T22:40:38.769Z,6.97
2018-04-06T22:43:06.504Z,7.03
2018-04-06T22:45:34.218Z,7.90
2018-04-06T22:48:01.928Z,8.20
2018-04-06T22:50:29.642Z,7.90
2018-04-06T22:52:57.397Z,8.77
2018-04-06T22:55:25.104Z,8.20
2018-04-06T22:57:52.831Z,8.80
2018-04-06T23:00:21.500Z,9.30
2018-04-06T23:02:49.230Z,9.27
2018-04-06T23:05:17.657Z,8.60
2018-04-06T23:07:45.393Z,8.50
2018-04-06T23:10:13.130Z,8.43
2018-04-06T23:12:40.877Z,9.37
2018-04-06T23:15:08.583Z,8.47
2018-04-06T23:17:36.402Z,8.47
2018-04-06T23:20:04.211Z,8.40
2018-04-06T23:22:31.943Z,8.70
2018-04-06T23:24:59.660Z,8.40
2018-04-06T23:27:27.384Z,8.90
2018-04-06T23:29:55.105Z,8.30
2018-04-06T23:32:23.607Z,8.50
2018-04-06T23:34:51.322Z,9.00
2018-04-06T23:37:19.045Z,7.30
2018-04-06T23:39:46.777Z,7.60
2018-04-06T23:42:16.259Z,8.50
2018-04-06T23:44:43.999Z,7.93
2018-04-06T23:47:11.736Z,8.50
2018-04-06T23:49:45.224Z,8.10
2018-04-06T23:52:13.724Z,8.87
2018-04-06T23:54:41.469Z,8.23
2018-04-06T23:57:09.284Z,9.00
2018-04-06T23:59:37.016Z,8.03
